Terminal Aerodrome Forecast
Issued by NWS Mt. Holly, NJ

Home | Current Version | Previous Version | Text Only | Print | Product List | Glossary On
Versions: 1 2 3 4 5 6 7 8 9 10 11 12 13 14
000
FTUS41 KPHI 310800 AAA
TAFILG
TAF AMD
KILG 310829Z 3108/0106 18006KT P6SM SCT010 OVC035
      TEMPO 3108/3112 BKN009 OVC025
     FM311200 18006KT P6SM OVC010
     FM311500 21012KT P6SM SCT020 BKN035
     FM312100 21010KT 3SM SHRA SCT025 OVC050
     FM010200 21006KT P6SM VCSH SCT035 OVC080=

USA.gov is the U.S. government's official web portal to all federal, state and local government web resources and services.